sensor_id;sensor_type;location;lat;lon;timestamp;P1;durP1;ratioP1;P2;durP2;ratioP2
30681;SDS011;17439;48.092;11.842;2022-10-16T00:01:22;1.33;;;0.98;;
30681;SDS011;17439;48.092;11.842;2022-10-16T00:03:52;1.58;;;0.60;;
30681;SDS011;17439;48.092;11.842;2022-10-16T00:06:19;4.07;;;0.80;;
30681;SDS011;17439;48.092;11.842;2022-10-16T00:08:47;0.93;;;0.80;;
30681;SDS011;17439;48.092;11.842;2022-10-16T00:13:46;4.10;;;1.13;;
30681;SDS011;17439;48.092;11.842;2022-10-16T00:16:14;1.75;;;0.73;;
30681;SDS011;17439;48.092;11.842;2022-10-16T00:18:41;1.10;;;0.77;;
30681;SDS011;17439;48.092;11.842;2022-10-16T00:21:10;6.07;;;0.68;;
30681;SDS011;17439;48.092;11.842;2022-10-16T00:23:42;6.00;;;0.95;;
30681;SDS011;17439;48.092;11.842;2022-10-16T00:26:09;1.70;;;0.77;;
30681;SDS011;17439;48.092;11.842;2022-10-16T00:28:38;2.17;;;0.88;;
30681;SDS011;17439;48.092;11.842;2022-10-16T00:31:06;1.55;;;0.90;;
30681;SDS011;17439;48.092;11.842;2022-10-16T00:33:35;1.10;;;0.80;;
30681;SDS011;17439;48.092;11.842;2022-10-16T00:36:03;1.08;;;0.50;;
30681;SDS011;17439;48.092;11.842;2022-10-16T00:38:30;2.38;;;0.40;;
30681;SDS011;17439;48.092;11.842;2022-10-16T00:40:57;2.08;;;0.68;;
30681;SDS011;17439;48.092;11.842;2022-10-16T00:43:37;0.95;;;0.82;;
30681;SDS011;17439;48.092;11.842;2022-10-16T00:49:00;2.85;;;0.80;;
30681;SDS011;17439;48.092;11.842;2022-10-16T00:51:33;2.72;;;1.00;;
30681;SDS011;17439;48.092;11.842;2022-10-16T00:54:06;2.50;;;0.70;;
30681;SDS011;17439;48.092;11.842;2022-10-16T00:56:35;1.15;;;0.60;;
30681;SDS011;17439;48.092;11.842;2022-10-16T00:59:03;0.90;;;0.82;;
30681;SDS011;17439;48.092;11.842;2022-10-16T01:01:37;0.45;;;0.40;;
30681;SDS011;17439;48.092;11.842;2022-10-16T01:04:04;0.82;;;0.50;;
30681;SDS011;17439;48.092;11.842;2022-10-16T01:06:43;1.23;;;0.80;;
30681;SDS011;17439;48.092;11.842;2022-10-16T01:09:24;0.80;;;0.50;;
30681;SDS011;17439;48.092;11.842;2022-10-16T01:17:58;1.00;;;0.40;;
30681;SDS011;17439;48.092;11.842;2022-10-16T01:20:50;4.22;;;0.70;;
30681;SDS011;17439;48.092;11.842;2022-10-16T01:25:59;2.60;;;1.30;;
30681;SDS011;17439;48.092;11.842;2022-10-16T01:32:00;9.68;;;1.98;;
30681;SDS011;17439;48.092;11.842;2022-10-16T01:34:51;0.90;;;0.50;;
30681;SDS011;17439;48.092;11.842;2022-10-16T01:37:50;1.60;;;0.50;;
30681;SDS011;17439;48.092;11.842;2022-10-16T01:40:21;0.70;;;0.43;;
30681;SDS011;17439;48.092;11.842;2022-10-16T01:43:02;7.72;;;0.60;;
30681;SDS011;17439;48.092;11.842;2022-10-16T01:45:32;3.35;;;0.60;;
30681;SDS011;17439;48.092;11.842;2022-10-16T01:50:28;2.05;;;0.85;;
30681;SDS011;17439;48.092;11.842;2022-10-16T01:52:55;4.63;;;0.80;;
30681;SDS011;17439;48.092;11.842;2022-10-16T01:55:26;0.60;;;0.50;;
30681;SDS011;17439;48.092;11.842;2022-10-16T01:57:57;1.30;;;0.70;;
30681;SDS011;17439;48.092;11.842;2022-10-16T02:00:27;0.70;;;0.60;;
30681;SDS011;17439;48.092;11.842;2022-10-16T02:05:31;0.80;;;0.52;;
30681;SDS011;17439;48.092;11.842;2022-10-16T02:08:04;4.55;;;0.70;;
30681;SDS011;17439;48.092;11.842;2022-10-16T02:10:31;2.60;;;0.57;;
30681;SDS011;17439;48.092;11.842;2022-10-16T02:13:01;1.35;;;0.70;;
30681;SDS011;17439;48.092;11.842;2022-10-16T02:15:32;1.83;;;0.70;;
30681;SDS011;17439;48.092;11.842;2022-10-16T02:17:58;1.70;;;0.70;;
30681;SDS011;17439;48.092;11.842;2022-10-16T02:20:27;4.10;;;0.60;;
30681;SDS011;17439;48.092;11.842;2022-10-16T02:23:01;2.97;;;0.60;;
30681;SDS011;17439;48.092;11.842;2022-10-16T02:25:30;6.55;;;0.95;;
30681;SDS011;17439;48.092;11.842;2022-10-16T02:28:06;5.53;;;0.70;;
30681;SDS011;17439;48.092;11.842;2022-10-16T02:30:39;0.88;;;0.45;;
30681;SDS011;17439;48.092;11.842;2022-10-16T02:33:10;1.52;;;0.93;;
30681;SDS011;17439;48.092;11.842;2022-10-16T02:35:39;3.08;;;1.08;;
30681;SDS011;17439;48.092;11.842;2022-10-16T02:38:07;2.25;;;0.80;;
30681;SDS011;17439;48.092;11.842;2022-10-16T02:40:55;1.77;;;0.70;;
30681;SDS011;17439;48.092;11.842;2022-10-16T02:43:22;3.00;;;0.70;;
30681;SDS011;17439;48.092;11.842;2022-10-16T02:45:48;2.53;;;0.88;;
30681;SDS011;17439;48.092;11.842;2022-10-16T02:48:15;2.85;;;0.70;;
30681;SDS011;17439;48.092;11.842;2022-10-16T02:50:41;3.60;;;0.88;;
30681;SDS011;17439;48.092;11.842;2022-10-16T02:53:08;0.55;;;0.50;;
30681;SDS011;17439;48.092;11.842;2022-10-16T02:55:35;3.60;;;0.65;;
30681;SDS011;17439;48.092;11.842;2022-10-16T02:58:01;5.55;;;0.85;;
30681;SDS011;17439;48.092;11.842;2022-10-16T03:00:28;4.55;;;0.90;;
30681;SDS011;17439;48.092;11.842;2022-10-16T03:02:54;0.75;;;0.52;;
30681;SDS011;17439;48.092;11.842;2022-10-16T03:05:21;1.80;;;0.60;;
30681;SDS011;17439;48.092;11.842;2022-10-16T03:08:07;3.25;;;0.75;;
30681;SDS011;17439;48.092;11.842;2022-10-16T03:10:34;1.27;;;0.40;;
30681;SDS011;17439;48.092;11.842;2022-10-16T03:13:00;1.35;;;1.05;;
30681;SDS011;17439;48.092;11.842;2022-10-16T03:15:27;0.65;;;0.52;;
30681;SDS011;17439;48.092;11.842;2022-10-16T03:17:54;2.17;;;0.55;;
30681;SDS011;17439;48.092;11.842;2022-10-16T03:20:21;1.33;;;0.80;;
30681;SDS011;17439;48.092;11.842;2022-10-16T03:22:47;2.33;;;0.60;;
30681;SDS011;17439;48.092;11.842;2022-10-16T03:25:14;1.02;;;0.77;;
30681;SDS011;17439;48.092;11.842;2022-10-16T03:27:40;4.13;;;0.88;;
30681;SDS011;17439;48.092;11.842;2022-10-16T03:30:07;1.30;;;0.82;;
30681;SDS011;17439;48.092;11.842;2022-10-16T03:32:34;1.13;;;0.73;;
30681;SDS011;17439;48.092;11.842;2022-10-16T03:35:21;2.33;;;0.55;;
30681;SDS011;17439;48.092;11.842;2022-10-16T03:40:16;0.73;;;0.52;;
30681;SDS011;17439;48.092;11.842;2022-10-16T03:42:43;6.22;;;0.85;;
30681;SDS011;17439;48.092;11.842;2022-10-16T03:45:10;0.50;;;0.40;;
30681;SDS011;17439;48.092;11.842;2022-10-16T03:47:37;1.40;;;0.70;;
30681;SDS011;17439;48.092;11.842;2022-10-16T03:50:04;0.70;;;0.60;;
30681;SDS011;17439;48.092;11.842;2022-10-16T03:52:31;0.73;;;0.50;;
30681;SDS011;17439;48.092;11.842;2022-10-16T03:54:57;3.17;;;1.00;;
30681;SDS011;17439;48.092;11.842;2022-10-16T03:57:24;1.30;;;0.55;;
30681;SDS011;17439;48.092;11.842;2022-10-16T03:59:51;1.10;;;0.60;;
30681;SDS011;17439;48.092;11.842;2022-10-16T04:02:18;2.42;;;1.08;;
30681;SDS011;17439;48.092;11.842;2022-10-16T04:04:44;1.98;;;0.70;;
30681;SDS011;17439;48.092;11.842;2022-10-16T04:07:11;2.03;;;0.60;;
30681;SDS011;17439;48.092;11.842;2022-10-16T04:09:37;5.53;;;0.68;;
30681;SDS011;17439;48.092;11.842;2022-10-16T04:12:04;5.75;;;0.95;;
30681;SDS011;17439;48.092;11.842;2022-10-16T04:14:30;2.13;;;0.77;;
30681;SDS011;17439;48.092;11.842;2022-10-16T04:16:57;3.78;;;0.80;;
30681;SDS011;17439;48.092;11.842;2022-10-16T04:19:23;1.05;;;0.77;;
30681;SDS011;17439;48.092;11.842;2022-10-16T04:21:50;3.85;;;1.23;;
30681;SDS011;17439;48.092;11.842;2022-10-16T04:24:16;2.45;;;0.60;;
30681;SDS011;17439;48.092;11.842;2022-10-16T04:26:43;2.20;;;0.80;;
30681;SDS011;17439;48.092;11.842;2022-10-16T04:29:09;1.75;;;0.68;;
30681;SDS011;17439;48.092;11.842;2022-10-16T04:31:36;1.02;;;0.68;;
30681;SDS011;17439;48.092;11.842;2022-10-16T04:34:02;2.65;;;0.85;;
30681;SDS011;17439;48.092;11.842;2022-10-16T04:36:29;0.95;;;0.65;;
30681;SDS011;17439;48.092;11.842;2022-10-16T04:38:55;0.80;;;0.45;;
30681;SDS011;17439;48.092;11.842;2022-10-16T04:41:22;2.55;;;0.40;;
30681;SDS011;17439;48.092;11.842;2022-10-16T04:43:49;2.80;;;0.73;;
30681;SDS011;17439;48.092;11.842;2022-10-16T04:46:15;1.08;;;0.55;;
30681;SDS011;17439;48.092;11.842;2022-10-16T04:48:42;2.80;;;0.63;;
30681;SDS011;17439;48.092;11.842;2022-10-16T04:51:09;2.55;;;0.70;;
30681;SDS011;17439;48.092;11.842;2022-10-16T04:53:35;0.52;;;0.47;;
30681;SDS011;17439;48.092;11.842;2022-10-16T04:56:02;1.77;;;0.80;;
30681;SDS011;17439;48.092;11.842;2022-10-16T04:58:28;0.73;;;0.65;;
30681;SDS011;17439;48.092;11.842;2022-10-16T05:00:55;1.48;;;0.68;;
30681;SDS011;17439;48.092;11.842;2022-10-16T05:03:22;1.23;;;0.65;;
30681;SDS011;17439;48.092;11.842;2022-10-16T05:05:48;0.80;;;0.65;;
30681;SDS011;17439;48.092;11.842;2022-10-16T05:08:15;0.90;;;0.77;;
30681;SDS011;17439;48.092;11.842;2022-10-16T05:10:43;0.88;;;0.60;;
30681;SDS011;17439;48.092;11.842;2022-10-16T05:13:10;2.73;;;0.63;;
30681;SDS011;17439;48.092;11.842;2022-10-16T05:15:37;1.60;;;0.50;;
30681;SDS011;17439;48.092;11.842;2022-10-16T05:18:03;1.48;;;0.73;;
30681;SDS011;17439;48.092;11.842;2022-10-16T05:20:30;2.17;;;0.95;;
30681;SDS011;17439;48.092;11.842;2022-10-16T05:22:57;1.10;;;0.70;;
30681;SDS011;17439;48.092;11.842;2022-10-16T05:25:23;1.38;;;0.80;;
30681;SDS011;17439;48.092;11.842;2022-10-16T05:27:50;1.02;;;0.77;;
30681;SDS011;17439;48.092;11.842;2022-10-16T05:30:17;1.55;;;1.35;;
30681;SDS011;17439;48.092;11.842;2022-10-16T05:32:47;2.53;;;0.80;;
30681;SDS011;17439;48.092;11.842;2022-10-16T05:35:14;3.65;;;0.70;;
30681;SDS011;17439;48.092;11.842;2022-10-16T05:37:41;0.98;;;0.50;;
30681;SDS011;17439;48.092;11.842;2022-10-16T05:40:08;2.15;;;1.13;;
30681;SDS011;17439;48.092;11.842;2022-10-16T05:42:36;1.38;;;0.70;;
30681;SDS011;17439;48.092;11.842;2022-10-16T05:45:03;3.70;;;0.80;;
30681;SDS011;17439;48.092;11.842;2022-10-16T05:47:31;1.50;;;0.88;;
30681;SDS011;17439;48.092;11.842;2022-10-16T05:49:57;3.13;;;0.82;;
30681;SDS011;17439;48.092;11.842;2022-10-16T05:52:24;0.80;;;0.70;;
30681;SDS011;17439;48.092;11.842;2022-10-16T05:54:51;1.52;;;0.88;;
30681;SDS011;17439;48.092;11.842;2022-10-16T05:57:17;0.75;;;0.60;;
30681;SDS011;17439;48.092;11.842;2022-10-16T05:59:44;0.40;;;0.40;;
30681;SDS011;17439;48.092;11.842;2022-10-16T06:02:11;2.05;;;0.85;;
30681;SDS011;17439;48.092;11.842;2022-10-16T06:04:39;0.88;;;0.60;;
30681;SDS011;17439;48.092;11.842;2022-10-16T06:07:06;2.33;;;0.95;;
30681;SDS011;17439;48.092;11.842;2022-10-16T06:09:33;1.25;;;0.77;;
30681;SDS011;17439;48.092;11.842;2022-10-16T06:11:59;1.50;;;0.55;;
30681;SDS011;17439;48.092;11.842;2022-10-16T06:14:26;1.00;;;0.70;;
30681;SDS011;17439;48.092;11.842;2022-10-16T06:16:52;2.45;;;0.80;;
30681;SDS011;17439;48.092;11.842;2022-10-16T06:19:19;4.57;;;0.95;;
30681;SDS011;17439;48.092;11.842;2022-10-16T06:21:45;0.93;;;0.75;;
30681;SDS011;17439;48.092;11.842;2022-10-16T06:24:12;1.15;;;0.85;;
30681;SDS011;17439;48.092;11.842;2022-10-16T06:26:38;2.65;;;0.88;;
30681;SDS011;17439;48.092;11.842;2022-10-16T06:29:05;1.20;;;0.68;;
30681;SDS011;17439;48.092;11.842;2022-10-16T06:31:31;2.40;;;1.05;;
30681;SDS011;17439;48.092;11.842;2022-10-16T06:33:58;3.80;;;1.13;;
30681;SDS011;17439;48.092;11.842;2022-10-16T06:36:26;0.90;;;0.80;;
30681;SDS011;17439;48.092;11.842;2022-10-16T06:38:53;2.90;;;0.90;;
30681;SDS011;17439;48.092;11.842;2022-10-16T06:41:20;1.13;;;0.70;;
30681;SDS011;17439;48.092;11.842;2022-10-16T06:43:48;1.60;;;1.20;;
30681;SDS011;17439;48.092;11.842;2022-10-16T06:46:16;1.67;;;1.17;;
30681;SDS011;17439;48.092;11.842;2022-10-16T06:48:44;1.65;;;0.80;;
30681;SDS011;17439;48.092;11.842;2022-10-16T06:51:12;1.23;;;0.75;;
30681;SDS011;17439;48.092;11.842;2022-10-16T06:53:43;1.58;;;0.90;;
30681;SDS011;17439;48.092;11.842;2022-10-16T06:56:28;0.77;;;0.70;;
30681;SDS011;17439;48.092;11.842;2022-10-16T06:58:55;2.10;;;0.55;;
30681;SDS011;17439;48.092;11.842;2022-10-16T07:01:22;2.90;;;1.15;;
30681;SDS011;17439;48.092;11.842;2022-10-16T07:03:50;1.52;;;0.80;;
30681;SDS011;17439;48.092;11.842;2022-10-16T07:06:18;3.90;;;1.48;;
30681;SDS011;17439;48.092;11.842;2022-10-16T07:08:46;1.58;;;0.98;;
30681;SDS011;17439;48.092;11.842;2022-10-16T07:11:17;2.93;;;0.93;;
30681;SDS011;17439;48.092;11.842;2022-10-16T07:13:45;2.50;;;1.00;;
30681;SDS011;17439;48.092;11.842;2022-10-16T07:16:20;1.45;;;0.82;;
30681;SDS011;17439;48.092;11.842;2022-10-16T07:18:48;4.78;;;0.80;;
30681;SDS011;17439;48.092;11.842;2022-10-16T07:21:15;3.20;;;1.65;;
30681;SDS011;17439;48.092;11.842;2022-10-16T07:23:44;1.08;;;0.77;;
30681;SDS011;17439;48.092;11.842;2022-10-16T07:26:10;3.38;;;1.10;;
30681;SDS011;17439;48.092;11.842;2022-10-16T07:28:37;5.18;;;1.25;;
30681;SDS011;17439;48.092;11.842;2022-10-16T07:31:05;1.15;;;0.70;;
30681;SDS011;17439;48.092;11.842;2022-10-16T07:33:34;1.15;;;1.00;;
30681;SDS011;17439;48.092;11.842;2022-10-16T07:36:01;1.75;;;0.70;;
30681;SDS011;17439;48.092;11.842;2022-10-16T07:38:28;2.08;;;1.02;;
30681;SDS011;17439;48.092;11.842;2022-10-16T07:41:04;1.55;;;1.00;;
30681;SDS011;17439;48.092;11.842;2022-10-16T07:43:33;2.25;;;1.15;;
30681;SDS011;17439;48.092;11.842;2022-10-16T07:45:59;1.50;;;0.77;;
30681;SDS011;17439;48.092;11.842;2022-10-16T07:48:32;2.75;;;1.00;;
30681;SDS011;17439;48.092;11.842;2022-10-16T07:51:04;1.60;;;1.13;;
30681;SDS011;17439;48.092;11.842;2022-10-16T07:53:32;1.80;;;1.00;;
30681;SDS011;17439;48.092;11.842;2022-10-16T07:56:00;3.78;;;1.10;;
30681;SDS011;17439;48.092;11.842;2022-10-16T07:58:28;1.38;;;1.20;;
30681;SDS011;17439;48.092;11.842;2022-10-16T08:00:55;2.17;;;1.45;;
30681;SDS011;17439;48.092;11.842;2022-10-16T08:03:23;2.58;;;1.58;;
30681;SDS011;17439;48.092;11.842;2022-10-16T08:05:50;1.10;;;0.88;;
30681;SDS011;17439;48.092;11.842;2022-10-16T08:08:18;1.15;;;1.02;;
30681;SDS011;17439;48.092;11.842;2022-10-16T08:10:45;5.82;;;1.45;;
30681;SDS011;17439;48.092;11.842;2022-10-16T08:13:12;1.30;;;0.90;;
30681;SDS011;17439;48.092;11.842;2022-10-16T08:15:38;1.40;;;1.20;;
30681;SDS011;17439;48.092;11.842;2022-10-16T08:18:05;1.45;;;1.10;;
30681;SDS011;17439;48.092;11.842;2022-10-16T08:20:32;2.50;;;1.00;;
30681;SDS011;17439;48.092;11.842;2022-10-16T08:22:59;1.60;;;1.00;;
30681;SDS011;17439;48.092;11.842;2022-10-16T08:25:26;1.77;;;0.90;;
30681;SDS011;17439;48.092;11.842;2022-10-16T08:27:54;1.90;;;0.88;;
30681;SDS011;17439;48.092;11.842;2022-10-16T08:30:21;1.52;;;0.88;;
30681;SDS011;17439;48.092;11.842;2022-10-16T08:32:50;0.73;;;0.73;;
30681;SDS011;17439;48.092;11.842;2022-10-16T08:35:16;0.98;;;0.77;;
30681;SDS011;17439;48.092;11.842;2022-10-16T08:37:43;1.33;;;1.00;;
30681;SDS011;17439;48.092;11.842;2022-10-16T08:45:43;3.97;;;1.05;;
30681;SDS011;17439;48.092;11.842;2022-10-16T08:48:17;1.55;;;0.90;;
30681;SDS011;17439;48.092;11.842;2022-10-16T08:50:50;3.58;;;1.02;;
30681;SDS011;17439;48.092;11.842;2022-10-16T08:55:52;3.95;;;1.20;;
30681;SDS011;17439;48.092;11.842;2022-10-16T08:58:23;1.70;;;0.98;;
30681;SDS011;17439;48.092;11.842;2022-10-16T09:00:55;2.00;;;1.00;;
30681;SDS011;17439;48.092;11.842;2022-10-16T09:12:13;2.40;;;1.00;;
30681;SDS011;17439;48.092;11.842;2022-10-16T09:14:50;5.30;;;1.25;;
30681;SDS011;17439;48.092;11.842;2022-10-16T09:25:43;1.85;;;1.15;;
30681;SDS011;17439;48.092;11.842;2022-10-16T09:28:11;3.72;;;1.20;;
30681;SDS011;17439;48.092;11.842;2022-10-16T09:30:38;3.10;;;1.55;;
30681;SDS011;17439;48.092;11.842;2022-10-16T09:33:05;3.22;;;1.73;;
30681;SDS011;17439;48.092;11.842;2022-10-16T09:38:04;7.25;;;2.05;;
30681;SDS011;17439;48.092;11.842;2022-10-16T09:40:35;4.18;;;2.20;;
30681;SDS011;17439;48.092;11.842;2022-10-16T09:43:17;4.82;;;2.50;;
30681;SDS011;17439;48.092;11.842;2022-10-16T09:45:53;7.07;;;2.67;;
30681;SDS011;17439;48.092;11.842;2022-10-16T09:48:20;13.77;;;4.15;;
30681;SDS011;17439;48.092;11.842;2022-10-16T09:50:57;8.98;;;4.20;;
30681;SDS011;17439;48.092;11.842;2022-10-16T09:53:38;9.32;;;3.30;;
30681;SDS011;17439;48.092;11.842;2022-10-16T09:56:10;21.15;;;4.40;;
30681;SDS011;17439;48.092;11.842;2022-10-16T09:58:42;8.90;;;4.05;;
30681;SDS011;17439;48.092;11.842;2022-10-16T10:01:15;8.40;;;3.92;;
30681;SDS011;17439;48.092;11.842;2022-10-16T10:03:42;8.95;;;3.28;;
30681;SDS011;17439;48.092;11.842;2022-10-16T10:06:23;8.30;;;3.08;;
30681;SDS011;17439;48.092;11.842;2022-10-16T10:08:58;14.60;;;4.15;;
30681;SDS011;17439;48.092;11.842;2022-10-16T10:14:21;8.05;;;3.28;;
30681;SDS011;17439;48.092;11.842;2022-10-16T10:16:49;10.55;;;4.05;;
30681;SDS011;17439;48.092;11.842;2022-10-16T10:19:19;9.20;;;3.10;;
30681;SDS011;17439;48.092;11.842;2022-10-16T10:21:48;4.93;;;2.55;;
30681;SDS011;17439;48.092;11.842;2022-10-16T10:24:17;5.85;;;2.85;;
30681;SDS011;17439;48.092;11.842;2022-10-16T10:26:48;5.93;;;2.90;;
30681;SDS011;17439;48.092;11.842;2022-10-16T10:32:17;10.30;;;3.45;;
30681;SDS011;17439;48.092;11.842;2022-10-16T10:46:01;3.92;;;1.95;;
30681;SDS011;17439;48.092;11.842;2022-10-16T10:51:25;4.32;;;2.17;;
30681;SDS011;17439;48.092;11.842;2022-10-16T10:54:13;5.45;;;2.25;;
30681;SDS011;17439;48.092;11.842;2022-10-16T11:10:02;6.18;;;1.75;;
30681;SDS011;17439;48.092;11.842;2022-10-16T11:12:36;7.22;;;1.95;;
30681;SDS011;17439;48.092;11.842;2022-10-16T11:15:22;4.60;;;2.40;;
30681;SDS011;17439;48.092;11.842;2022-10-16T11:17:57;3.58;;;2.20;;
30681;SDS011;17439;48.092;11.842;2022-10-16T11:20:40;8.98;;;2.67;;
30681;SDS011;17439;48.092;11.842;2022-10-16T11:25:48;3.38;;;1.17;;
30681;SDS011;17439;48.092;11.842;2022-10-16T11:28:23;1.35;;;0.70;;
30681;SDS011;17439;48.092;11.842;2022-10-16T11:31:19;2.67;;;0.52;;
30681;SDS011;17439;48.092;11.842;2022-10-16T11:36:42;0.43;;;0.40;;
30681;SDS011;17439;48.092;11.842;2022-10-16T11:41:55;1.75;;;1.08;;
30681;SDS011;17439;48.092;11.842;2022-10-16T11:44:43;0.75;;;0.50;;
30681;SDS011;17439;48.092;11.842;2022-10-16T11:47:24;0.30;;;0.30;;
30681;SDS011;17439;48.092;11.842;2022-10-16T11:52:55;1.00;;;0.45;;
30681;SDS011;17439;48.092;11.842;2022-10-16T11:55:36;0.30;;;0.30;;
30681;SDS011;17439;48.092;11.842;2022-10-16T11:58:15;0.40;;;0.40;;
30681;SDS011;17439;48.092;11.842;2022-10-16T12:00:57;0.80;;;0.38;;
30681;SDS011;17439;48.092;11.842;2022-10-16T12:03:41;0.63;;;0.40;;
30681;SDS011;17439;48.092;11.842;2022-10-16T12:06:37;0.52;;;0.50;;
30681;SDS011;17439;48.092;11.842;2022-10-16T12:09:17;0.40;;;0.30;;
30681;SDS011;17439;48.092;11.842;2022-10-16T12:11:46;0.88;;;0.30;;
30681;SDS011;17439;48.092;11.842;2022-10-16T12:19:23;0.45;;;0.30;;
30681;SDS011;17439;48.092;11.842;2022-10-16T12:21:52;0.38;;;0.30;;
30681;SDS011;17439;48.092;11.842;2022-10-16T12:26:56;0.60;;;0.43;;
30681;SDS011;17439;48.092;11.842;2022-10-16T12:29:38;0.88;;;0.30;;
30681;SDS011;17439;48.092;11.842;2022-10-16T12:35:28;1.17;;;0.20;;
30681;SDS011;17439;48.092;11.842;2022-10-16T12:38:08;0.35;;;0.35;;
30681;SDS011;17439;48.092;11.842;2022-10-16T12:40:44;0.57;;;0.30;;
30681;SDS011;17439;48.092;11.842;2022-10-16T12:45:59;0.60;;;0.40;;
30681;SDS011;17439;48.092;11.842;2022-10-16T12:48:32;1.88;;;0.40;;
30681;SDS011;17439;48.092;11.842;2022-10-16T12:53:58;2.30;;;0.40;;
30681;SDS011;17439;48.092;11.842;2022-10-16T12:56:49;1.10;;;0.40;;
30681;SDS011;17439;48.092;11.842;2022-10-16T12:59:23;2.70;;;0.50;;
30681;SDS011;17439;48.092;11.842;2022-10-16T13:10:37;1.10;;;0.63;;
30681;SDS011;17439;48.092;11.842;2022-10-16T13:19:22;0.40;;;0.30;;
30681;SDS011;17439;48.092;11.842;2022-10-16T13:22:14;0.32;;;0.30;;
30681;SDS011;17439;48.092;11.842;2022-10-16T13:25:02;0.43;;;0.40;;
30681;SDS011;17439;48.092;11.842;2022-10-16T13:27:41;1.85;;;0.50;;
30681;SDS011;17439;48.092;11.842;2022-10-16T13:30:18;0.70;;;0.45;;
30681;SDS011;17439;48.092;11.842;2022-10-16T13:32:58;1.67;;;0.50;;
30681;SDS011;17439;48.092;11.842;2022-10-16T13:35:28;1.00;;;0.40;;
30681;SDS011;17439;48.092;11.842;2022-10-16T13:43:40;0.40;;;0.30;;
30681;SDS011;17439;48.092;11.842;2022-10-16T13:46:21;0.32;;;0.30;;
30681;SDS011;17439;48.092;11.842;2022-10-16T13:51:41;0.32;;;0.30;;
30681;SDS011;17439;48.092;11.842;2022-10-16T13:54:20;0.45;;;0.40;;
30681;SDS011;17439;48.092;11.842;2022-10-16T13:56:47;1.17;;;0.88;;
30681;SDS011;17439;48.092;11.842;2022-10-16T13:59:34;2.38;;;0.70;;
30681;SDS011;17439;48.092;11.842;2022-10-16T14:02:05;0.95;;;0.50;;
30681;SDS011;17439;48.092;11.842;2022-10-16T14:04:45;0.65;;;0.52;;
30681;SDS011;17439;48.092;11.842;2022-10-16T14:07:14;0.57;;;0.57;;
30681;SDS011;17439;48.092;11.842;2022-10-16T14:09:48;0.50;;;0.38;;
30681;SDS011;17439;48.092;11.842;2022-10-16T14:12:16;0.55;;;0.55;;
30681;SDS011;17439;48.092;11.842;2022-10-16T14:14:44;0.85;;;0.30;;
30681;SDS011;17439;48.092;11.842;2022-10-16T14:17:14;0.70;;;0.45;;
30681;SDS011;17439;48.092;11.842;2022-10-16T14:19:45;0.57;;;0.40;;
30681;SDS011;17439;48.092;11.842;2022-10-16T14:22:23;0.90;;;0.60;;
30681;SDS011;17439;48.092;11.842;2022-10-16T14:24:51;0.75;;;0.43;;
30681;SDS011;17439;48.092;11.842;2022-10-16T14:27:24;0.60;;;0.50;;
30681;SDS011;17439;48.092;11.842;2022-10-16T14:32:56;0.50;;;0.50;;
30681;SDS011;17439;48.092;11.842;2022-10-16T14:35:29;0.95;;;0.40;;
30681;SDS011;17439;48.092;11.842;2022-10-16T14:38:00;2.15;;;0.40;;
30681;SDS011;17439;48.092;11.842;2022-10-16T14:40:33;1.38;;;0.63;;
30681;SDS011;17439;48.092;11.842;2022-10-16T14:43:02;0.93;;;0.52;;
30681;SDS011;17439;48.092;11.842;2022-10-16T14:45:31;1.63;;;0.47;;
30681;SDS011;17439;48.092;11.842;2022-10-16T14:48:01;1.20;;;0.63;;
30681;SDS011;17439;48.092;11.842;2022-10-16T14:50:31;1.52;;;0.98;;
30681;SDS011;17439;48.092;11.842;2022-10-16T14:52:58;2.58;;;1.45;;
30681;SDS011;17439;48.092;11.842;2022-10-16T14:55:24;2.90;;;0.55;;
30681;SDS011;17439;48.092;11.842;2022-10-16T14:57:52;1.03;;;0.60;;
30681;SDS011;17439;48.092;11.842;2022-10-16T15:00:25;0.68;;;0.50;;
30681;SDS011;17439;48.092;11.842;2022-10-16T15:02:51;0.50;;;0.45;;
30681;SDS011;17439;48.092;11.842;2022-10-16T15:05:19;1.77;;;0.60;;
30681;SDS011;17439;48.092;11.842;2022-10-16T15:07:47;3.22;;;0.60;;
30681;SDS011;17439;48.092;11.842;2022-10-16T15:10:15;0.80;;;0.57;;
30681;SDS011;17439;48.092;11.842;2022-10-16T15:12:45;0.40;;;0.40;;
30681;SDS011;17439;48.092;11.842;2022-10-16T15:15:23;1.23;;;0.60;;
30681;SDS011;17439;48.092;11.842;2022-10-16T15:17:55;0.73;;;0.60;;
30681;SDS011;17439;48.092;11.842;2022-10-16T15:20:23;0.55;;;0.40;;
30681;SDS011;17439;48.092;11.842;2022-10-16T15:22:50;0.50;;;0.50;;
30681;SDS011;17439;48.092;11.842;2022-10-16T15:25:27;4.50;;;1.00;;
30681;SDS011;17439;48.092;11.842;2022-10-16T15:27:58;0.52;;;0.40;;
30681;SDS011;17439;48.092;11.842;2022-10-16T15:30:25;0.60;;;0.60;;
30681;SDS011;17439;48.092;11.842;2022-10-16T15:32:53;1.33;;;0.50;;
30681;SDS011;17439;48.092;11.842;2022-10-16T15:35:19;3.00;;;0.43;;
30681;SDS011;17439;48.092;11.842;2022-10-16T15:37:46;0.82;;;0.75;;
30681;SDS011;17439;48.092;11.842;2022-10-16T15:40:14;0.98;;;0.50;;
30681;SDS011;17439;48.092;11.842;2022-10-16T15:42:42;2.35;;;0.43;;
30681;SDS011;17439;48.092;11.842;2022-10-16T15:45:09;0.75;;;0.50;;
30681;SDS011;17439;48.092;11.842;2022-10-16T15:47:37;0.80;;;0.63;;
30681;SDS011;17439;48.092;11.842;2022-10-16T15:50:09;1.95;;;0.57;;
30681;SDS011;17439;48.092;11.842;2022-10-16T15:52:38;2.65;;;0.90;;
30681;SDS011;17439;48.092;11.842;2022-10-16T15:55:06;0.95;;;0.57;;
30681;SDS011;17439;48.092;11.842;2022-10-16T15:57:37;2.13;;;0.70;;
30681;SDS011;17439;48.092;11.842;2022-10-16T16:00:07;2.67;;;1.63;;
30681;SDS011;17439;48.092;11.842;2022-10-16T16:02:40;12.25;;;6.03;;
30681;SDS011;17439;48.092;11.842;2022-10-16T16:05:08;7.18;;;4.75;;
30681;SDS011;17439;48.092;11.842;2022-10-16T16:07:36;2.60;;;2.03;;
30681;SDS011;17439;48.092;11.842;2022-10-16T16:10:05;2.70;;;0.90;;
30681;SDS011;17439;48.092;11.842;2022-10-16T16:12:33;1.25;;;0.80;;
30681;SDS011;17439;48.092;11.842;2022-10-16T16:15:00;1.08;;;0.90;;
30681;SDS011;17439;48.092;11.842;2022-10-16T16:17:31;2.90;;;1.17;;
30681;SDS011;17439;48.092;11.842;2022-10-16T16:19:59;3.55;;;1.15;;
30681;SDS011;17439;48.092;11.842;2022-10-16T16:22:25;1.58;;;0.85;;
30681;SDS011;17439;48.092;11.842;2022-10-16T16:24:53;2.20;;;1.00;;
30681;SDS011;17439;48.092;11.842;2022-10-16T16:27:19;3.65;;;1.38;;
30681;SDS011;17439;48.092;11.842;2022-10-16T16:29:46;3.55;;;1.13;;
30681;SDS011;17439;48.092;11.842;2022-10-16T16:32:13;8.45;;;2.22;;
30681;SDS011;17439;48.092;11.842;2022-10-16T16:34:40;1.45;;;1.10;;
30681;SDS011;17439;48.092;11.842;2022-10-16T16:37:07;1.30;;;1.08;;
30681;SDS011;17439;48.092;11.842;2022-10-16T16:39:33;2.33;;;1.15;;
30681;SDS011;17439;48.092;11.842;2022-10-16T16:42:00;3.13;;;0.85;;
30681;SDS011;17439;48.092;11.842;2022-10-16T16:44:27;1.25;;;0.65;;
30681;SDS011;17439;48.092;11.842;2022-10-16T16:46:53;4.60;;;0.80;;
30681;SDS011;17439;48.092;11.842;2022-10-16T16:49:20;3.83;;;0.70;;
30681;SDS011;17439;48.092;11.842;2022-10-16T16:51:46;4.43;;;0.90;;
30681;SDS011;17439;48.092;11.842;2022-10-16T16:54:13;4.47;;;1.10;;
30681;SDS011;17439;48.092;11.842;2022-10-16T16:56:40;1.15;;;0.73;;
30681;SDS011;17439;48.092;11.842;2022-10-16T16:59:10;1.60;;;1.00;;
30681;SDS011;17439;48.092;11.842;2022-10-16T17:01:39;5.32;;;2.72;;
30681;SDS011;17439;48.092;11.842;2022-10-16T17:04:06;4.82;;;2.10;;
30681;SDS011;17439;48.092;11.842;2022-10-16T17:06:33;5.25;;;1.80;;
30681;SDS011;17439;48.092;11.842;2022-10-16T17:09:03;5.25;;;2.35;;
30681;SDS011;17439;48.092;11.842;2022-10-16T17:11:31;7.57;;;1.60;;